»·PEaware :: SAS781 KLAS-KLAX

SAS781 :: KLAS-KLAX

FLIGHT INFORMATION

Flight Status: Arrived
Operator:
SAS
More flights by this operator :: More flights under this callsign
Pilot: Marcus G. (3739)
Aircraft: BOEING 737-800
(B738)
More flights by this aircraft type
Origin: KLAS McCarran Intl
United States
Destination: KLAX Los Angeles Intl
United States
More flights between these airports :: More routes between these airports
Route: +BOACH5 HEC RIIVR2
File this flight plan on PilotEdge
Remarks: Request I-9
Altitude:
(Current/Filed)
26,000ft
Speed:
(Current/Filed)
280kts
Departed: 19-Jul-14 11:49 AM
Arrived: 19-Jul-14 12:31 PM
Distance/Time
Traveled:
205nm/0:42
Distance/Time
To Go:
Arrived

Flight Plot

Page will automatically refresh every two minutes.


Map Options




Map Legend


Flown Route
Filed Route
Departure Airport
Arrival Airport
Navaid (VOR, NDB)
Fix

Horizontal Profiles

Position Reports

Time Latitude Longitude Heading Altitude Ground
Speed
19-Jul-14 11:21 36.083231 -115.138821 225 2188ft 0kts
19-Jul-14 11:22 36.083231 -115.138821 225 2188ft 0kts
19-Jul-14 11:23 36.083231 -115.138821 225 2188ft 0kts
19-Jul-14 11:24 36.083231 -115.138821 225 2188ft 0kts
19-Jul-14 11:25 36.083231 -115.138821 225 2188ft 0kts
19-Jul-14 11:26 36.083231 -115.138821 225 2188ft 0kts
19-Jul-14 11:27 36.083231 -115.138821 225 2188ft 0kts
19-Jul-14 11:28 36.083231 -115.138821 225 2188ft 0kts
19-Jul-14 11:29 36.083231 -115.138821 225 2188ft 0kts
19-Jul-14 11:30 36.083231 -115.138821 225 2188ft 0kts
19-Jul-14 11:31 36.083231 -115.138821 225 2188ft 0kts
19-Jul-14 11:32 36.083297 -115.138740 225 2188ft 1kts
19-Jul-14 11:33 36.083642 -115.138315 225 2188ft 1kts
19-Jul-14 11:34 36.083984 -115.137894 225 2188ft 1kts
19-Jul-14 11:35 36.084167 -115.137411 270 2188ft 0kts
19-Jul-14 11:36 36.084167 -115.137407 270 2188ft 0kts
19-Jul-14 11:37 36.084167 -115.137407 270 2188ft 0kts
19-Jul-14 11:38 36.084186 -115.137951 273 2188ft 11kts
19-Jul-14 11:39 36.082632 -115.141639 177 2189ft 13kts
19-Jul-14 11:40 36.078815 -115.142377 201 2188ft 8kts
19-Jul-14 11:41 36.078526 -115.147247 274 2188ft 18kts
19-Jul-14 11:42 36.078769 -115.152614 269 2188ft 16kts
19-Jul-14 11:43 36.082752 -115.155639 334 2188ft 17kts
19-Jul-14 11:44 36.087517 -115.157686 24 2188ft 17kts
19-Jul-14 11:45 36.092328 -115.154931 24 2188ft 20kts
19-Jul-14 11:46 36.097585 -115.152046 2 2188ft 13kts
19-Jul-14 11:47 36.095177 -115.155541 204 2189ft 68kts
19-Jul-14 11:48 36.058945 -115.176591 201 3688ft 167kts
19-Jul-14 11:49 36.013200 -115.208578 227 4977ft 227kts
19-Jul-14 11:50 35.975066 -115.285022 220 6709ft 278kts
19-Jul-14 11:51 35.901187 -115.310118 185 9314ft 283kts
19-Jul-14 11:52 35.818606 -115.311505 172 11278ft 324kts
19-Jul-14 11:53 35.722990 -115.299801 172 13411ft 354kts
19-Jul-14 11:54 35.646152 -115.338763 221 15495ft 378kts
19-Jul-14 11:55 35.572732 -115.435570 225 17979ft 394kts
19-Jul-14 11:56 35.497246 -115.537009 225 20352ft 406kts
19-Jul-14 11:57 35.421376 -115.638637 225 22980ft 401kts
19-Jul-14 11:58 35.345694 -115.739905 225 24079ft 402kts
19-Jul-14 11:59 35.270749 -115.839643 225 24078ft 398kts
19-Jul-14 12:00 35.195318 -115.939656 225 24079ft 397kts
19-Jul-14 12:01 35.120102 -116.039074 225 24078ft 397kts
19-Jul-14 12:02 35.044897 -116.138184 225 24076ft 397kts
19-Jul-14 12:03 34.969549 -116.237517 225 24084ft 398kts
19-Jul-14 12:04 34.893893 -116.336569 224 24085ft 398kts
19-Jul-14 12:05 34.818098 -116.435418 224 24091ft 398kts
19-Jul-14 12:06 34.734060 -116.522297 215 24106ft 395kts
19-Jul-14 12:07 34.647233 -116.604046 215 24120ft 395kts
19-Jul-14 12:08 34.560728 -116.685262 215 24150ft 381kts
19-Jul-14 12:09 34.477984 -116.762742 215 23791ft 367kts
19-Jul-14 12:10 34.398232 -116.837651 215 22468ft 357kts
19-Jul-14 12:11 34.320226 -116.910760 215 21112ft 350kts
19-Jul-14 12:12 34.243507 -116.982215 215 19730ft 345kts
19-Jul-14 12:13 34.167273 -117.052941 215 18194ft 344kts
19-Jul-14 12:14 34.097942 -117.131099 235 16955ft 343kts
19-Jul-14 12:15 34.052273 -117.239071 249 15123ft 364kts
19-Jul-14 12:16 34.037626 -117.358135 262 13912ft 352kts
19-Jul-14 12:17 34.026632 -117.475449 261 12324ft 348kts
19-Jul-14 12:18 34.015645 -117.590958 261 10732ft 342kts
19-Jul-14 12:19 34.005314 -117.698570 261 10001ft 301kts
19-Jul-14 12:20 33.995564 -117.798947 262 8966ft 300kts
19-Jul-14 12:21 33.985927 -117.897890 262 7364ft 293kts
19-Jul-14 12:22 33.976519 -117.993671 261 5935ft 278kts
19-Jul-14 12:23 33.967792 -118.081229 262 4926ft 249kts
19-Jul-14 12:24 33.960563 -118.155613 262 3785ft 233kts
19-Jul-14 12:25 33.953380 -118.226223 262 2639ft 182kts
19-Jul-14 12:26 33.947619 -118.282548 262 1765ft 158kts
19-Jul-14 12:27 33.942443 -118.333739 261 971ft 155kts
19-Jul-14 12:28 33.937198 -118.384495 262 157ft 146kts
19-Jul-14 12:29 33.935972 -118.407005 265 134ft 16kts
19-Jul-14 12:30 33.937979 -118.409259 352 134ft 7kts
19-Jul-14 12:31 33.940857 -118.408147 59 134ft 5kts
19-Jul-14 12:32 33.941013 -118.407567 74 134ft 0kts

Navigation Log

Ident Type
1. KLAS Airport
2. BOACH Fix
3. HEC Navaid
4. DYPSO Fix
5. GRAMM Fix
6. RUSTT Fix
7. HABSO Fix
8. RIIVR Fix
9. KLAX Airport